メインページ
METAR-TAF:

METAR-TAF

空港 :

キング・ハーリド国際空港

リヤド, サウジアラビア

緯度: 24-56N, 経度: 046-43E, 海抜: 614m

現時点の気象観測

当レポートは34分前の06:00(UTC)に作成
の風 8kt
気温 24°C
湿度 27%
気圧 1019 hPa
視程10km以上
1,500メートル以下は雲なし、積乱雲なし

METAR: OERK 040600Z 08008KT CAVOK 24/04 Q1019 NOSIG

時間: 09:34 (06:34 UTC)

予報

当レポートは7時間34分前の23:00(UTC)に作成
予報は04日の 00時(UTC)から 05日の 06時(UTC)まで有効
北東の風 8kt
視程: 6000m
高度4000ftの雲はほとんどない
04日の 08時(UTC)から 04日の 18時(UTC)まで一時的に
高度3500ftの雲はほとんどない, 積乱雲.
高度4000ftの雲は散在している
高度10000ftの千切れ雲あり
激しい雷雨, 雨
04日の 07時(UTC)から 04日の 09時(UTC)まで徐々に
南/南東の風 10kt
04日の 13時(UTC)から 04日の 15時(UTC)まで徐々に
東/北東の風 12kt

TAF: OERK 032300Z 0400/0506 05008KT 6000 FEW040 TEMPO 0408/0418 TSRA FEW035CB SCT040 BKN100 BECMG 0407/0409 15010KT BECMG 0413/0415 06012KT

4,000以上の空港の気象観測と天気予報(METAR報とTAF報)

利用可能な観測所は地図上に黄色い丸と赤い丸で示す。

丸の上にカーソルを重ねると観測所名を参照できる。

次にクリックすると気象観測と天気予報を参照できる。

マップの切り替え:黒色「×」印の緑ボタンをクリックして拡大、「-」印の緑ボタンをクリックして縮小、緑色の三角印をクリックして隣りの地図に切り替え


METAR-TAF: